sensor_id;sensor_type;location;lat;lon;timestamp;pressure;altitude;pressure_sealevel;temperature;humidity
42519;BME280;28147;47.520;18.920;2023-08-12T00:00:02;99121.41;;;21.14;48.54
42519;BME280;28147;47.520;18.920;2023-08-12T00:02:41;99128.84;;;21.33;48.70
42519;BME280;28147;47.520;18.920;2023-08-12T00:05:07;99124.06;;;21.20;48.76
42519;BME280;28147;47.520;18.920;2023-08-12T00:07:34;99126.50;;;21.16;48.75
42519;BME280;28147;47.520;18.920;2023-08-12T00:10:01;99128.97;;;21.12;48.21
42519;BME280;28147;47.520;18.920;2023-08-12T00:12:28;99121.41;;;21.14;47.73
42519;BME280;28147;47.520;18.920;2023-08-12T00:14:54;99117.50;;;21.26;48.21
42519;BME280;28147;47.520;18.920;2023-08-12T00:17:20;99119.47;;;20.86;49.07
42519;BME280;28147;47.520;18.920;2023-08-12T00:19:45;99120.03;;;20.83;49.50
42519;BME280;28147;47.520;18.920;2023-08-12T00:22:11;99112.38;;;20.95;49.03
42519;BME280;28147;47.520;18.920;2023-08-12T00:24:38;99117.53;;;21.21;48.43
42519;BME280;28147;47.520;18.920;2023-08-12T00:27:04;99117.53;;;20.92;49.03
42519;BME280;28147;47.520;18.920;2023-08-12T00:29:29;99115.03;;;21.00;48.98
42519;BME280;28147;47.520;18.920;2023-08-12T00:31:54;99106.97;;;20.95;49.24
42519;BME280;28147;47.520;18.920;2023-08-12T00:34:21;99105.31;;;20.94;49.03
42519;BME280;28147;47.520;18.920;2023-08-12T00:36:46;99106.38;;;20.98;49.43
42519;BME280;28147;47.520;18.920;2023-08-12T00:39:12;99105.81;;;21.01;48.83
42519;BME280;28147;47.520;18.920;2023-08-12T00:41:37;99112.75;;;20.78;49.56
42519;BME280;28147;47.520;18.920;2023-08-12T00:44:03;99107.03;;;20.85;49.57
42519;BME280;28147;47.520;18.920;2023-08-12T00:46:28;99103.22;;;20.86;49.31
42519;BME280;28147;47.520;18.920;2023-08-12T00:48:54;99104.44;;;20.70;49.85
42519;BME280;28147;47.520;18.920;2023-08-12T00:51:19;99101.88;;;20.88;49.09
42519;BME280;28147;47.520;18.920;2023-08-12T00:53:46;99093.81;;;20.78;49.30
42519;BME280;28147;47.520;18.920;2023-08-12T00:56:12;99096.16;;;20.90;49.35
42519;BME280;28147;47.520;18.920;2023-08-12T00:58:39;99097.25;;;21.18;48.82
42519;BME280;28147;47.520;18.920;2023-08-12T01:01:05;99104.06;;;21.16;48.82
42519;BME280;28147;47.520;18.920;2023-08-12T01:03:30;99093.13;;;20.97;49.30
42519;BME280;28147;47.520;18.920;2023-08-12T01:05:56;99099.75;;;21.09;48.80
42519;BME280;28147;47.520;18.920;2023-08-12T01:08:24;99089.22;;;21.08;49.09
42519;BME280;28147;47.520;18.920;2023-08-12T01:11:02;99092.94;;;21.17;48.81
42519;BME280;28147;47.520;18.920;2023-08-12T01:16:24;99093.06;;;21.31;48.69
42519;BME280;28147;47.520;18.920;2023-08-12T01:18:52;99097.50;;;21.22;48.99
42519;BME280;28147;47.520;18.920;2023-08-12T01:21:21;99100.66;;;21.29;48.69
42519;BME280;28147;47.520;18.920;2023-08-12T01:23:46;99095.78;;;21.31;48.11
42519;BME280;28147;47.520;18.920;2023-08-12T01:26:12;99103.16;;;21.25;48.79
42519;BME280;28147;47.520;18.920;2023-08-12T01:28:37;99101.03;;;21.17;49.00
42519;BME280;28147;47.520;18.920;2023-08-12T01:31:15;99108.28;;;21.27;48.38
42519;BME280;28147;47.520;18.920;2023-08-12T01:33:59;99103.72;;;21.22;48.96
42519;BME280;28147;47.520;18.920;2023-08-12T01:36:28;99105.88;;;21.25;49.05
42519;BME280;28147;47.520;18.920;2023-08-12T01:38:58;99094.66;;;21.08;49.19
42519;BME280;28147;47.520;18.920;2023-08-12T01:41:25;99106.56;;;21.07;49.21
42519;BME280;28147;47.520;18.920;2023-08-12T01:43:50;99104.63;;;21.12;48.74
42519;BME280;28147;47.520;18.920;2023-08-12T01:46:16;99104.13;;;21.05;49.10
42519;BME280;28147;47.520;18.920;2023-08-12T01:48:41;99105.72;;;21.11;48.67
42519;BME280;28147;47.520;18.920;2023-08-12T01:51:07;99100.56;;;21.10;48.52
42519;BME280;28147;47.520;18.920;2023-08-12T01:53:34;99099.25;;;21.07;49.00
42519;BME280;28147;47.520;18.920;2023-08-12T01:55:59;99098.94;;;21.14;48.41
42519;BME280;28147;47.520;18.920;2023-08-12T01:58:24;99095.06;;;21.20;48.74
42519;BME280;28147;47.520;18.920;2023-08-12T02:00:52;99092.94;;;21.17;48.80
42519;BME280;28147;47.520;18.920;2023-08-12T02:03:17;99094.94;;;21.06;48.98
42519;BME280;28147;47.520;18.920;2023-08-12T02:05:43;99097.94;;;20.71;49.86
42519;BME280;28147;47.520;18.920;2023-08-12T02:08:08;99092.28;;;20.72;49.72
42519;BME280;28147;47.520;18.920;2023-08-12T02:10:34;99095.78;;;20.73;50.02
42519;BME280;28147;47.520;18.920;2023-08-12T02:12:59;99094.47;;;20.65;50.28
42519;BME280;28147;47.520;18.920;2023-08-12T02:15:25;99088.28;;;20.59;50.00
42519;BME280;28147;47.520;18.920;2023-08-12T02:17:50;99092.84;;;20.64;49.86
42519;BME280;28147;47.520;18.920;2023-08-12T02:20:16;99102.53;;;20.31;50.79
42519;BME280;28147;47.520;18.920;2023-08-12T02:22:42;99093.75;;;20.49;50.81
42519;BME280;28147;47.520;18.920;2023-08-12T02:25:07;99097.34;;;20.79;49.86
42519;BME280;28147;47.520;18.920;2023-08-12T02:27:33;99087.00;;;20.52;50.83
42519;BME280;28147;47.520;18.920;2023-08-12T02:29:58;99102.00;;;20.73;50.10
42519;BME280;28147;47.520;18.920;2023-08-12T02:32:23;99090.94;;;20.70;50.26
42519;BME280;28147;47.520;18.920;2023-08-12T02:34:49;99088.59;;;20.87;49.67
42519;BME280;28147;47.520;18.920;2023-08-12T02:37:14;99098.84;;;20.95;49.89
42519;BME280;28147;47.520;18.920;2023-08-12T02:39:40;99095.47;;;20.74;50.47
42519;BME280;28147;47.520;18.920;2023-08-12T02:42:05;99097.34;;;20.79;50.42
42519;BME280;28147;47.520;18.920;2023-08-12T02:44:30;99091.47;;;21.01;49.49
42519;BME280;28147;47.520;18.920;2023-08-12T02:46:56;99087.31;;;20.79;50.19
42519;BME280;28147;47.520;18.920;2023-08-12T02:49:21;99083.44;;;20.90;49.63
42519;BME280;28147;47.520;18.920;2023-08-12T02:51:47;99093.44;;;20.90;49.40
42519;BME280;28147;47.520;18.920;2023-08-12T02:54:12;99085.81;;;20.97;49.15
42519;BME280;28147;47.520;18.920;2023-08-12T02:56:38;99087.72;;;21.26;47.50
42519;BME280;28147;47.520;18.920;2023-08-12T02:59:03;99079.69;;;21.16;48.94
42519;BME280;28147;47.520;18.920;2023-08-12T03:01:28;99094.09;;;21.11;49.21
42519;BME280;28147;47.520;18.920;2023-08-12T03:03:55;99089.44;;;20.82;49.77
42519;BME280;28147;47.520;18.920;2023-08-12T03:06:20;99090.00;;;20.79;49.68
42519;BME280;28147;47.520;18.920;2023-08-12T03:08:46;99086.34;;;20.99;49.33
42519;BME280;28147;47.520;18.920;2023-08-12T03:11:11;99090.91;;;21.04;49.47
42519;BME280;28147;47.520;18.920;2023-08-12T03:13:36;99086.59;;;21.03;49.11
42519;BME280;28147;47.520;18.920;2023-08-12T03:16:02;99086.06;;;21.01;49.38
42519;BME280;28147;47.520;18.920;2023-08-12T03:18:27;99093.75;;;21.18;48.50
42519;BME280;28147;47.520;18.920;2023-08-12T03:20:53;99087.63;;;21.07;49.27
42519;BME280;28147;47.520;18.920;2023-08-12T03:23:18;99090.59;;;21.05;49.66
42519;BME280;28147;47.520;18.920;2023-08-12T03:25:43;99091.41;;;20.77;50.33
42519;BME280;28147;47.520;18.920;2023-08-12T03:28:09;99087.53;;;20.88;49.74
42519;BME280;28147;47.520;18.920;2023-08-12T03:30:34;99092.94;;;20.88;50.13
42519;BME280;28147;47.520;18.920;2023-08-12T03:32:59;99092.28;;;20.67;50.82
42519;BME280;28147;47.520;18.920;2023-08-12T03:35:25;99091.53;;;20.61;51.12
42519;BME280;28147;47.520;18.920;2023-08-12T03:37:50;99092.72;;;20.79;49.94
42519;BME280;28147;47.520;18.920;2023-08-12T03:40:17;99093.44;;;20.90;49.49
42519;BME280;28147;47.520;18.920;2023-08-12T03:42:43;99101.56;;;20.90;49.95
42519;BME280;28147;47.520;18.920;2023-08-12T03:45:08;99101.19;;;20.73;49.80
42519;BME280;28147;47.520;18.920;2023-08-12T03:47:34;99103.34;;;20.71;50.07
42519;BME280;28147;47.520;18.920;2023-08-12T03:49:59;99107.59;;;20.82;50.08
42519;BME280;28147;47.520;18.920;2023-08-12T03:52:25;99100.72;;;20.95;49.90
42519;BME280;28147;47.520;18.920;2023-08-12T03:54:50;99107.19;;;20.99;49.50
42519;BME280;28147;47.520;18.920;2023-08-12T03:57:15;99110.13;;;21.02;49.53
42519;BME280;28147;47.520;18.920;2023-08-12T03:59:41;99107.41;;;21.02;49.86
42519;BME280;28147;47.520;18.920;2023-08-12T04:02:06;99105.06;;;20.90;49.41
42519;BME280;28147;47.520;18.920;2023-08-12T04:04:32;99107.69;;;21.01;49.62
42519;BME280;28147;47.520;18.920;2023-08-12T04:06:57;99108.06;;;20.89;50.51
42519;BME280;28147;47.520;18.920;2023-08-12T04:09:23;99117.31;;;20.88;50.86
42519;BME280;28147;47.520;18.920;2023-08-12T04:11:48;99113.84;;;21.11;50.08
42519;BME280;28147;47.520;18.920;2023-08-12T04:14:14;99104.56;;;20.88;50.96
42519;BME280;28147;47.520;18.920;2023-08-12T04:16:39;99111.03;;;20.93;50.73
42519;BME280;28147;47.520;18.920;2023-08-12T04:19:05;99113.19;;;20.90;51.60
42519;BME280;28147;47.520;18.920;2023-08-12T04:21:30;99116.50;;;20.87;51.50
42519;BME280;28147;47.520;18.920;2023-08-12T04:23:56;99113.19;;;20.96;51.33
42519;BME280;28147;47.520;18.920;2023-08-12T04:26:21;99115.25;;;21.04;50.98
42519;BME280;28147;47.520;18.920;2023-08-12T04:28:46;99116.22;;;21.18;51.05
42519;BME280;28147;47.520;18.920;2023-08-12T04:31:12;99120.81;;;21.47;50.85
42519;BME280;28147;47.520;18.920;2023-08-12T04:33:37;99120.94;;;21.84;49.51
42519;BME280;28147;47.520;18.920;2023-08-12T04:36:03;99125.97;;;21.72;49.65
42519;BME280;28147;47.520;18.920;2023-08-12T04:38:28;99120.31;;;22.11;49.02
42519;BME280;28147;47.520;18.920;2023-08-12T04:40:54;99129.47;;;22.40;48.93
42519;BME280;28147;47.520;18.920;2023-08-12T04:43:21;99125.19;;;22.71;48.21
42519;BME280;28147;47.520;18.920;2023-08-12T04:45:47;99129.78;;;22.90;47.82
42519;BME280;28147;47.520;18.920;2023-08-12T04:48:13;99134.22;;;23.18;47.42
42519;BME280;28147;47.520;18.920;2023-08-12T04:50:38;99129.44;;;23.43;46.90
42519;BME280;28147;47.520;18.920;2023-08-12T04:53:07;99132.41;;;23.88;45.69
42519;BME280;28147;47.520;18.920;2023-08-12T04:55:34;99128.66;;;24.11;45.84
42519;BME280;28147;47.520;18.920;2023-08-12T04:57:59;99132.22;;;24.34;45.21
42519;BME280;28147;47.520;18.920;2023-08-12T05:00:25;99135.34;;;24.55;44.48
42519;BME280;28147;47.520;18.920;2023-08-12T05:02:50;99124.00;;;24.84;44.25
42519;BME280;28147;47.520;18.920;2023-08-12T05:05:16;99127.09;;;24.46;45.56
42519;BME280;28147;47.520;18.920;2023-08-12T05:07:41;99130.63;;;24.92;44.93
42519;BME280;28147;47.520;18.920;2023-08-12T05:10:07;99132.94;;;24.76;45.62
42519;BME280;28147;47.520;18.920;2023-08-12T05:12:32;99124.72;;;25.12;43.85
42519;BME280;28147;47.520;18.920;2023-08-12T05:14:58;99123.03;;;24.80;42.87
42519;BME280;28147;47.520;18.920;2023-08-12T05:17:23;99127.84;;;25.28;43.91
42519;BME280;28147;47.520;18.920;2023-08-12T05:19:49;99124.78;;;25.61;43.55
42519;BME280;28147;47.520;18.920;2023-08-12T05:22:15;99113.06;;;25.20;42.54
42519;BME280;28147;47.520;18.920;2023-08-12T05:24:40;99126.53;;;25.57;44.16
42519;BME280;28147;47.520;18.920;2023-08-12T05:27:06;99129.16;;;25.70;41.59
42519;BME280;28147;47.520;18.920;2023-08-12T05:29:31;99126.50;;;25.48;40.37
42519;BME280;28147;47.520;18.920;2023-08-12T05:31:57;99116.94;;;26.08;43.64
42519;BME280;28147;47.520;18.920;2023-08-12T05:34:22;99124.28;;;25.99;43.25
42519;BME280;28147;47.520;18.920;2023-08-12T05:36:48;99128.34;;;26.27;42.37
42519;BME280;28147;47.520;18.920;2023-08-12T05:39:13;99121.28;;;26.43;42.52
42519;BME280;28147;47.520;18.920;2023-08-12T05:41:40;99118.13;;;26.50;41.01
42519;BME280;28147;47.520;18.920;2023-08-12T05:44:05;99121.81;;;26.63;39.77
42519;BME280;28147;47.520;18.920;2023-08-12T05:46:31;99113.78;;;26.75;40.17
42519;BME280;28147;47.520;18.920;2023-08-12T05:48:56;99120.88;;;26.67;39.35
42519;BME280;28147;47.520;18.920;2023-08-12T05:51:22;99125.50;;;26.58;39.96
42519;BME280;28147;47.520;18.920;2023-08-12T05:53:48;99114.75;;;26.53;37.44
42519;BME280;28147;47.520;18.920;2023-08-12T05:56:13;99124.81;;;27.05;39.32
42519;BME280;28147;47.520;18.920;2023-08-12T05:58:39;99117.66;;;26.48;36.20
42519;BME280;28147;47.520;18.920;2023-08-12T06:01:04;99120.53;;;26.86;39.86
42519;BME280;28147;47.520;18.920;2023-08-12T06:03:29;99120.00;;;26.93;38.28
42519;BME280;28147;47.520;18.920;2023-08-12T06:05:55;99121.94;;;27.57;38.27
42519;BME280;28147;47.520;18.920;2023-08-12T06:08:20;99116.75;;;27.26;38.46
42519;BME280;28147;47.520;18.920;2023-08-12T06:10:46;99125.03;;;27.55;36.32
42519;BME280;28147;47.520;18.920;2023-08-12T06:13:11;99123.13;;;27.85;37.30
42519;BME280;28147;47.520;18.920;2023-08-12T06:15:36;99117.25;;;27.96;36.24
42519;BME280;28147;47.520;18.920;2023-08-12T06:18:02;99126.03;;;28.40;36.62
42519;BME280;28147;47.520;18.920;2023-08-12T06:20:28;99126.84;;;28.40;37.23
42519;BME280;28147;47.520;18.920;2023-08-12T06:22:53;99124.66;;;28.25;37.69
42519;BME280;28147;47.520;18.920;2023-08-12T06:25:19;99117.72;;;27.68;36.06
42519;BME280;28147;47.520;18.920;2023-08-12T06:27:45;99125.72;;;27.35;37.70
42519;BME280;28147;47.520;18.920;2023-08-12T06:30:12;99129.56;;;27.89;37.08
42519;BME280;28147;47.520;18.920;2023-08-12T06:32:37;99137.16;;;28.34;37.19
42519;BME280;28147;47.520;18.920;2023-08-12T06:35:03;99133.81;;;28.08;36.23
42519;BME280;28147;47.520;18.920;2023-08-12T06:37:29;99120.50;;;27.98;37.00
42519;BME280;28147;47.520;18.920;2023-08-12T06:39:54;99122.59;;;27.54;37.49
42519;BME280;28147;47.520;18.920;2023-08-12T06:42:21;99128.22;;;27.96;37.66
42519;BME280;28147;47.520;18.920;2023-08-12T06:44:49;99113.25;;;28.23;38.27
42519;BME280;28147;47.520;18.920;2023-08-12T06:47:15;99120.28;;;28.03;38.31
42519;BME280;28147;47.520;18.920;2023-08-12T06:49:40;99121.50;;;28.44;37.05
42519;BME280;28147;47.520;18.920;2023-08-12T06:52:05;99124.94;;;28.32;37.17
42519;BME280;28147;47.520;18.920;2023-08-12T06:54:31;99123.13;;;28.78;37.15
42519;BME280;28147;47.520;18.920;2023-08-12T06:56:56;99129.25;;;28.42;36.89
42519;BME280;28147;47.520;18.920;2023-08-12T06:59:22;99121.16;;;28.45;37.52
42519;BME280;28147;47.520;18.920;2023-08-12T07:01:47;99126.88;;;28.73;36.82
42519;BME280;28147;47.520;18.920;2023-08-12T07:04:12;99128.81;;;28.31;37.80
42519;BME280;28147;47.520;18.920;2023-08-12T07:06:38;99121.31;;;28.19;37.16
42519;BME280;28147;47.520;18.920;2023-08-12T07:09:04;99123.22;;;27.98;37.28
42519;BME280;28147;47.520;18.920;2023-08-12T07:11:29;99130.78;;;28.01;36.88
42519;BME280;28147;47.520;18.920;2023-08-12T07:13:55;99121.53;;;27.37;38.40
42519;BME280;28147;47.520;18.920;2023-08-12T07:16:20;99135.88;;;28.11;37.08
42519;BME280;28147;47.520;18.920;2023-08-12T07:18:45;99132.31;;;28.10;37.43
42519;BME280;28147;47.520;18.920;2023-08-12T07:21:11;99134.34;;;29.06;37.74
42519;BME280;28147;47.520;18.920;2023-08-12T07:23:36;99137.22;;;28.89;36.33
42519;BME280;28147;47.520;18.920;2023-08-12T07:26:01;99134.75;;;28.96;35.75
42519;BME280;28147;47.520;18.920;2023-08-12T07:28:27;99134.56;;;29.13;36.34
42519;BME280;28147;47.520;18.920;2023-08-12T07:30:52;99135.59;;;28.54;37.00
42519;BME280;28147;47.520;18.920;2023-08-12T07:33:19;99132.38;;;28.73;36.64
42519;BME280;28147;47.520;18.920;2023-08-12T07:35:44;99138.22;;;28.21;36.16
42519;BME280;28147;47.520;18.920;2023-08-12T07:38:10;99135.84;;;28.41;36.66
42519;BME280;28147;47.520;18.920;2023-08-12T07:40:35;99137.06;;;28.22;37.99
42519;BME280;28147;47.520;18.920;2023-08-12T07:43:00;99139.56;;;28.78;36.62
42519;BME280;28147;47.520;18.920;2023-08-12T07:45:26;99136.41;;;29.09;36.00
42519;BME280;28147;47.520;18.920;2023-08-12T07:47:51;99137.97;;;28.98;36.83
42519;BME280;28147;47.520;18.920;2023-08-12T07:50:17;99134.31;;;28.52;36.37
42519;BME280;28147;47.520;18.920;2023-08-12T07:52:43;99130.91;;;29.09;35.44
42519;BME280;28147;47.520;18.920;2023-08-12T07:55:08;99134.25;;;28.60;36.07
42519;BME280;28147;47.520;18.920;2023-08-12T07:57:34;99132.00;;;28.96;36.45
42519;BME280;28147;47.520;18.920;2023-08-12T07:59:59;99130.56;;;28.77;36.82
42519;BME280;28147;47.520;18.920;2023-08-12T08:02:25;99124.94;;;28.74;35.26
42519;BME280;28147;47.520;18.920;2023-08-12T08:04:50;99129.78;;;29.68;35.52
42519;BME280;28147;47.520;18.920;2023-08-12T08:07:16;99121.75;;;30.12;36.60
42519;BME280;28147;47.520;18.920;2023-08-12T08:09:42;99121.25;;;30.34;35.43
42519;BME280;28147;47.520;18.920;2023-08-12T08:12:09;99124.16;;;30.13;35.81
42519;BME280;28147;47.520;18.920;2023-08-12T08:14:35;99121.97;;;29.45;36.15
42519;BME280;28147;47.520;18.920;2023-08-12T08:17:00;99120.97;;;29.87;36.10
42519;BME280;28147;47.520;18.920;2023-08-12T08:19:27;99125.16;;;30.33;36.01
42519;BME280;28147;47.520;18.920;2023-08-12T08:21:52;99127.28;;;29.63;35.15
42519;BME280;28147;47.520;18.920;2023-08-12T08:24:17;99127.56;;;29.49;36.36
42519;BME280;28147;47.520;18.920;2023-08-12T08:26:43;99128.00;;;29.39;37.37
42519;BME280;28147;47.520;18.920;2023-08-12T08:29:11;99127.56;;;29.49;37.06
42519;BME280;28147;47.520;18.920;2023-08-12T08:31:36;99128.50;;;29.53;36.62
42519;BME280;28147;47.520;18.920;2023-08-12T08:34:01;99130.75;;;29.39;36.54
42519;BME280;28147;47.520;18.920;2023-08-12T08:36:27;99123.94;;;29.69;35.85
42519;BME280;28147;47.520;18.920;2023-08-12T08:38:52;99125.00;;;29.89;34.31
42519;BME280;28147;47.520;18.920;2023-08-12T08:41:19;99125.31;;;30.00;34.64
42519;BME280;28147;47.520;18.920;2023-08-12T08:43:47;99122.88;;;30.35;35.24
42519;BME280;28147;47.520;18.920;2023-08-12T08:46:16;99126.41;;;29.38;36.29
42519;BME280;28147;47.520;18.920;2023-08-12T08:48:42;99123.19;;;29.36;35.78
42519;BME280;28147;47.520;18.920;2023-08-12T08:51:09;99119.50;;;29.89;34.94
42519;BME280;28147;47.520;18.920;2023-08-12T08:53:39;99120.41;;;31.14;35.31
42519;BME280;28147;47.520;18.920;2023-08-12T08:56:05;99124.50;;;31.84;34.07
42519;BME280;28147;47.520;18.920;2023-08-12T08:58:31;99116.19;;;29.84;34.10
42519;BME280;28147;47.520;18.920;2023-08-12T09:00:57;99126.78;;;29.48;34.34
42519;BME280;28147;47.520;18.920;2023-08-12T09:03:23;99120.31;;;30.54;32.66
42519;BME280;28147;47.520;18.920;2023-08-12T09:05:50;99118.94;;;31.33;33.70
42519;BME280;28147;47.520;18.920;2023-08-12T09:08:16;99132.09;;;30.55;33.91
42519;BME280;28147;47.520;18.920;2023-08-12T09:10:42;99120.63;;;29.88;33.52
42519;BME280;28147;47.520;18.920;2023-08-12T09:13:08;99120.94;;;30.11;35.54
42519;BME280;28147;47.520;18.920;2023-08-12T09:15:34;99121.47;;;30.41;36.30
42519;BME280;28147;47.520;18.920;2023-08-12T09:18:00;99124.50;;;29.99;35.74
42519;BME280;28147;47.520;18.920;2023-08-12T09:20:26;99115.91;;;29.52;35.75
42519;BME280;28147;47.520;18.920;2023-08-12T09:22:56;99105.06;;;29.55;37.44
42519;BME280;28147;47.520;18.920;2023-08-12T09:25:22;99114.88;;;29.56;37.83
42519;BME280;28147;47.520;18.920;2023-08-12T09:27:48;99116.34;;;29.42;36.33
42519;BME280;28147;47.520;18.920;2023-08-12T09:30:14;99112.41;;;29.76;35.26
42519;BME280;28147;47.520;18.920;2023-08-12T09:32:39;99099.75;;;30.64;33.58
42519;BME280;28147;47.520;18.920;2023-08-12T09:35:05;99111.91;;;30.63;32.57
42519;BME280;28147;47.520;18.920;2023-08-12T09:37:31;99111.41;;;31.01;32.42
42519;BME280;28147;47.520;18.920;2023-08-12T09:39:57;99105.19;;;29.84;32.17
42519;BME280;28147;47.520;18.920;2023-08-12T09:42:23;99112.19;;;29.11;34.95
42519;BME280;28147;47.520;18.920;2023-08-12T09:44:48;99112.81;;;29.29;33.79
42519;BME280;28147;47.520;18.920;2023-08-12T09:47:14;99096.63;;;29.61;36.16
42519;BME280;28147;47.520;18.920;2023-08-12T09:49:40;99106.56;;;29.65;35.93
42519;BME280;28147;47.520;18.920;2023-08-12T09:52:06;99093.88;;;29.73;35.39
42519;BME280;28147;47.520;18.920;2023-08-12T09:54:33;99101.78;;;29.74;36.89
42519;BME280;28147;47.520;18.920;2023-08-12T09:56:59;99109.66;;;29.64;37.00
42519;BME280;28147;47.520;18.920;2023-08-12T09:59:33;99103.78;;;29.53;37.66
42519;BME280;28147;47.520;18.920;2023-08-12T10:02:03;99103.09;;;30.29;35.43
42519;BME280;28147;47.520;18.920;2023-08-12T10:04:38;99098.13;;;30.75;32.32
42519;BME280;28147;47.520;18.920;2023-08-12T10:07:08;99093.50;;;30.92;33.59
42519;BME280;28147;47.520;18.920;2023-08-12T10:09:36;99079.66;;;30.88;32.33
42519;BME280;28147;47.520;18.920;2023-08-12T10:12:03;99082.53;;;31.71;31.18
42519;BME280;28147;47.520;18.920;2023-08-12T10:14:29;99081.47;;;32.11;30.53
42519;BME280;28147;47.520;18.920;2023-08-12T10:16:55;99082.09;;;31.53;29.42
42519;BME280;28147;47.520;18.920;2023-08-12T10:19:21;99083.22;;;31.84;29.37
42519;BME280;28147;47.520;18.920;2023-08-12T10:21:48;99083.34;;;32.07;29.33
42519;BME280;28147;47.520;18.920;2023-08-12T10:24:15;99078.53;;;32.97;29.37
42519;BME280;28147;47.520;18.920;2023-08-12T10:26:42;99077.41;;;32.40;29.21
42519;BME280;28147;47.520;18.920;2023-08-12T10:29:08;99075.72;;;32.00;30.02
42519;BME280;28147;47.520;18.920;2023-08-12T10:31:34;99085.28;;;32.41;29.23
42519;BME280;28147;47.520;18.920;2023-08-12T10:33:59;99084.53;;;33.03;27.96
42519;BME280;28147;47.520;18.920;2023-08-12T10:36:28;99079.88;;;33.07;29.46
42519;BME280;28147;47.520;18.920;2023-08-12T10:38:53;99081.09;;;32.48;29.11
42519;BME280;28147;47.520;18.920;2023-08-12T10:41:23;99073.75;;;32.16;30.50
42519;BME280;28147;47.520;18.920;2023-08-12T10:44:04;99074.94;;;32.00;29.07
42519;BME280;28147;47.520;18.920;2023-08-12T10:46:36;99070.56;;;31.32;30.93
42519;BME280;28147;47.520;18.920;2023-08-12T10:54:19;99067.28;;;30.82;33.54
42519;BME280;28147;47.520;18.920;2023-08-12T10:57:18;99063.00;;;30.69;33.44
42519;BME280;28147;47.520;18.920;2023-08-12T11:04:44;99064.56;;;30.42;32.11
42519;BME280;28147;47.520;18.920;2023-08-12T11:07:17;99060.38;;;30.32;34.60
42519;BME280;28147;47.520;18.920;2023-08-12T11:09:43;99043.91;;;31.20;31.50
42519;BME280;28147;47.520;18.920;2023-08-12T11:12:10;99046.72;;;31.87;30.37
42519;BME280;28147;47.520;18.920;2023-08-12T11:14:54;99046.47;;;30.81;29.86
42519;BME280;28147;47.520;18.920;2023-08-12T11:17:29;99039.16;;;30.73;31.40
42519;BME280;28147;47.520;18.920;2023-08-12T11:19:55;99039.63;;;30.91;29.76
42519;BME280;28147;47.520;18.920;2023-08-12T11:22:20;99035.66;;;31.36;29.91
42519;BME280;28147;47.520;18.920;2023-08-12T11:24:46;99031.28;;;31.66;28.82
42519;BME280;28147;47.520;18.920;2023-08-12T11:27:13;99033.28;;;31.34;30.53
42519;BME280;28147;47.520;18.920;2023-08-12T11:29:39;99034.31;;;30.54;29.99
42519;BME280;28147;47.520;18.920;2023-08-12T11:32:07;99030.88;;;30.29;30.36
42519;BME280;28147;47.520;18.920;2023-08-12T11:34:33;99031.50;;;30.38;33.11
42519;BME280;28147;47.520;18.920;2023-08-12T11:36:58;99028.56;;;30.59;32.75
42519;BME280;28147;47.520;18.920;2023-08-12T11:39:24;99026.78;;;31.26;32.12
42519;BME280;28147;47.520;18.920;2023-08-12T11:41:49;99027.41;;;31.20;32.91
42519;BME280;28147;47.520;18.920;2023-08-12T11:44:16;99020.66;;;31.01;32.48
42519;BME280;28147;47.520;18.920;2023-08-12T11:46:42;99022.16;;;30.83;33.32
42519;BME280;28147;47.520;18.920;2023-08-12T11:49:07;99028.00;;;31.29;32.04
42519;BME280;28147;47.520;18.920;2023-08-12T11:51:34;99021.44;;;32.01;30.45
42519;BME280;28147;47.520;18.920;2023-08-12T11:54:00;99022.03;;;31.90;31.39
42519;BME280;28147;47.520;18.920;2023-08-12T11:56:26;99022.00;;;30.92;29.96
42519;BME280;28147;47.520;18.920;2023-08-12T11:58:52;99017.25;;;31.56;29.92
42519;BME280;28147;47.520;18.920;2023-08-12T12:01:21;99011.69;;;31.52;30.74
42519;BME280;28147;47.520;18.920;2023-08-12T12:03:54;99010.13;;;31.70;31.25
42519;BME280;28147;47.520;18.920;2023-08-12T12:06:33;99010.34;;;32.36;29.02
42519;BME280;28147;47.520;18.920;2023-08-12T12:09:06;99008.59;;;32.08;31.09
42519;BME280;28147;47.520;18.920;2023-08-12T12:11:38;98999.78;;;31.48;30.29
42519;BME280;28147;47.520;18.920;2023-08-12T12:14:05;98996.94;;;30.65;30.96
42519;BME280;28147;47.520;18.920;2023-08-12T12:16:45;98998.13;;;30.52;30.72
42519;BME280;28147;47.520;18.920;2023-08-12T12:19:18;98989.88;;;30.80;30.29
42519;BME280;28147;47.520;18.920;2023-08-12T12:21:46;98993.88;;;30.54;30.76
42519;BME280;28147;47.520;18.920;2023-08-12T12:24:12;98989.75;;;30.04;32.11
42519;BME280;28147;47.520;18.920;2023-08-12T12:26:37;98985.13;;;30.21;32.07
42519;BME280;28147;47.520;18.920;2023-08-12T12:29:05;98983.16;;;29.81;31.83
42519;BME280;28147;47.520;18.920;2023-08-12T12:31:32;98984.72;;;30.35;31.94
42519;BME280;28147;47.520;18.920;2023-08-12T12:33:58;98983.22;;;30.97;31.10
42519;BME280;28147;47.520;18.920;2023-08-12T12:36:24;98982.06;;;31.30;32.10
42519;BME280;28147;47.520;18.920;2023-08-12T12:38:49;98980.50;;;31.64;31.65
42519;BME280;28147;47.520;18.920;2023-08-12T12:41:14;98980.97;;;31.85;30.19
42519;BME280;28147;47.520;18.920;2023-08-12T12:43:40;98977.16;;;31.90;29.05
42519;BME280;28147;47.520;18.920;2023-08-12T12:46:05;98965.63;;;31.17;28.70
42519;BME280;28147;47.520;18.920;2023-08-12T12:48:31;98964.38;;;31.46;28.89
42519;BME280;28147;47.520;18.920;2023-08-12T12:50:56;98959.75;;;30.56;30.29
42519;BME280;28147;47.520;18.920;2023-08-12T12:53:22;98962.38;;;30.08;31.29
42519;BME280;28147;47.520;18.920;2023-08-12T12:55:48;98956.72;;;30.89;30.70
42519;BME280;28147;47.520;18.920;2023-08-12T12:58:14;98958.47;;;31.13;32.27